sensor_id;sensor_type;location;lat;lon;timestamp;temperature;humidity
13976;DHT22;7062;49.792;9.946;2023-01-20T00:01:37;3.60;99.90
13976;DHT22;7062;49.792;9.946;2023-01-20T00:04:03;3.40;99.90
13976;DHT22;7062;49.792;9.946;2023-01-20T00:06:29;3.10;99.90
13976;DHT22;7062;49.792;9.946;2023-01-20T00:08:57;3.00;99.90
13976;DHT22;7062;49.792;9.946;2023-01-20T00:11:24;3.00;99.90
13976;DHT22;7062;49.792;9.946;2023-01-20T00:14:00;2.90;99.90
13976;DHT22;7062;49.792;9.946;2023-01-20T00:16:26;3.00;99.90
13976;DHT22;7062;49.792;9.946;2023-01-20T00:18:52;3.00;99.90
13976;DHT22;7062;49.792;9.946;2023-01-20T00:21:18;2.90;99.90
13976;DHT22;7062;49.792;9.946;2023-01-20T00:23:45;2.80;99.90
13976;DHT22;7062;49.792;9.946;2023-01-20T00:26:13;2.80;99.90
13976;DHT22;7062;49.792;9.946;2023-01-20T00:28:40;2.80;99.90
13976;DHT22;7062;49.792;9.946;2023-01-20T00:31:11;2.80;99.90
13976;DHT22;7062;49.792;9.946;2023-01-20T00:33:37;2.70;99.90
13976;DHT22;7062;49.792;9.946;2023-01-20T00:36:03;2.70;99.90
13976;DHT22;7062;49.792;9.946;2023-01-20T00:38:29;2.70;99.90
13976;DHT22;7062;49.792;9.946;2023-01-20T00:40:54;2.60;99.90
13976;DHT22;7062;49.792;9.946;2023-01-20T00:43:20;2.70;99.90
13976;DHT22;7062;49.792;9.946;2023-01-20T00:45:46;2.70;99.90
13976;DHT22;7062;49.792;9.946;2023-01-20T00:48:12;2.90;99.90
13976;DHT22;7062;49.792;9.946;2023-01-20T00:50:38;3.00;99.90
13976;DHT22;7062;49.792;9.946;2023-01-20T00:53:03;3.10;99.90
13976;DHT22;7062;49.792;9.946;2023-01-20T00:55:29;3.20;99.90
13976;DHT22;7062;49.792;9.946;2023-01-20T00:57:54;3.20;99.90
13976;DHT22;7062;49.792;9.946;2023-01-20T01:00:20;3.20;99.90
13976;DHT22;7062;49.792;9.946;2023-01-20T01:02:46;3.20;99.90
13976;DHT22;7062;49.792;9.946;2023-01-20T01:05:11;3.20;99.90
13976;DHT22;7062;49.792;9.946;2023-01-20T01:07:37;3.10;99.90
13976;DHT22;7062;49.792;9.946;2023-01-20T01:10:03;3.00;99.90
13976;DHT22;7062;49.792;9.946;2023-01-20T01:12:29;3.00;99.90
13976;DHT22;7062;49.792;9.946;2023-01-20T01:14:54;3.00;99.90
13976;DHT22;7062;49.792;9.946;2023-01-20T01:17:20;3.10;99.90
13976;DHT22;7062;49.792;9.946;2023-01-20T01:19:50;3.30;99.90
13976;DHT22;7062;49.792;9.946;2023-01-20T01:22:16;3.20;99.90
13976;DHT22;7062;49.792;9.946;2023-01-20T01:24:45;3.10;99.90
13976;DHT22;7062;49.792;9.946;2023-01-20T01:27:10;3.10;99.90
13976;DHT22;7062;49.792;9.946;2023-01-20T01:29:36;3.10;99.90
13976;DHT22;7062;49.792;9.946;2023-01-20T01:32:02;3.10;99.90
13976;DHT22;7062;49.792;9.946;2023-01-20T01:34:28;3.10;99.90
13976;DHT22;7062;49.792;9.946;2023-01-20T01:36:54;3.00;99.90
13976;DHT22;7062;49.792;9.946;2023-01-20T01:39:21;3.00;99.90
13976;DHT22;7062;49.792;9.946;2023-01-20T01:41:46;3.20;99.90
13976;DHT22;7062;49.792;9.946;2023-01-20T01:44:13;3.30;99.90
13976;DHT22;7062;49.792;9.946;2023-01-20T01:46:39;3.40;99.90
13976;DHT22;7062;49.792;9.946;2023-01-20T01:49:16;3.30;99.90
13976;DHT22;7062;49.792;9.946;2023-01-20T01:51:47;3.20;99.90
13976;DHT22;7062;49.792;9.946;2023-01-20T01:54:17;3.10;99.90
13976;DHT22;7062;49.792;9.946;2023-01-20T01:56:44;3.00;99.90
13976;DHT22;7062;49.792;9.946;2023-01-20T01:59:11;2.80;99.90
13976;DHT22;7062;49.792;9.946;2023-01-20T02:01:40;2.90;99.90
13976;DHT22;7062;49.792;9.946;2023-01-20T02:04:11;3.10;99.90
13976;DHT22;7062;49.792;9.946;2023-01-20T02:06:39;3.20;99.90
13976;DHT22;7062;49.792;9.946;2023-01-20T02:09:05;3.20;99.90
13976;DHT22;7062;49.792;9.946;2023-01-20T02:11:35;3.20;99.90
13976;DHT22;7062;49.792;9.946;2023-01-20T02:14:02;3.40;99.90
13976;DHT22;7062;49.792;9.946;2023-01-20T02:27:19;3.00;99.90
13976;DHT22;7062;49.792;9.946;2023-01-20T02:32:46;2.90;99.90
13976;DHT22;7062;49.792;9.946;2023-01-20T02:35:38;3.00;99.90
13976;DHT22;7062;49.792;9.946;2023-01-20T02:41:45;2.90;99.90
13976;DHT22;7062;49.792;9.946;2023-01-20T02:44:27;2.90;99.90
13976;DHT22;7062;49.792;9.946;2023-01-20T02:52:45;2.90;99.90
13976;DHT22;7062;49.792;9.946;2023-01-20T02:55:19;3.00;99.90
13976;DHT22;7062;49.792;9.946;2023-01-20T02:57:49;3.00;99.90
13976;DHT22;7062;49.792;9.946;2023-01-20T03:00:41;3.00;99.90
13976;DHT22;7062;49.792;9.946;2023-01-20T03:03:10;3.00;99.90
13976;DHT22;7062;49.792;9.946;2023-01-20T03:05:42;3.00;99.90
13976;DHT22;7062;49.792;9.946;2023-01-20T03:08:12;3.00;99.90
13976;DHT22;7062;49.792;9.946;2023-01-20T03:10:39;2.80;99.90
13976;DHT22;7062;49.792;9.946;2023-01-20T03:13:18;2.80;99.90
13976;DHT22;7062;49.792;9.946;2023-01-20T03:15:59;2.80;99.90
13976;DHT22;7062;49.792;9.946;2023-01-20T03:18:30;2.90;99.90
13976;DHT22;7062;49.792;9.946;2023-01-20T03:20:58;3.10;99.90
13976;DHT22;7062;49.792;9.946;2023-01-20T03:23:25;3.10;99.90
13976;DHT22;7062;49.792;9.946;2023-01-20T03:25:53;3.10;99.90
13976;DHT22;7062;49.792;9.946;2023-01-20T03:28:19;3.00;99.90
13976;DHT22;7062;49.792;9.946;2023-01-20T03:30:45;2.90;99.90
13976;DHT22;7062;49.792;9.946;2023-01-20T03:33:11;2.90;99.90
13976;DHT22;7062;49.792;9.946;2023-01-20T03:35:38;2.90;99.90
13976;DHT22;7062;49.792;9.946;2023-01-20T03:38:04;2.80;99.90
13976;DHT22;7062;49.792;9.946;2023-01-20T03:40:38;2.70;99.90
13976;DHT22;7062;49.792;9.946;2023-01-20T03:43:22;2.70;99.90
13976;DHT22;7062;49.792;9.946;2023-01-20T03:45:59;2.70;99.90
13976;DHT22;7062;49.792;9.946;2023-01-20T03:49:01;2.60;99.90
13976;DHT22;7062;49.792;9.946;2023-01-20T03:51:57;2.60;99.90
13976;DHT22;7062;49.792;9.946;2023-01-20T03:54:29;2.70;99.90
13976;DHT22;7062;49.792;9.946;2023-01-20T03:56:59;2.90;99.90
13976;DHT22;7062;49.792;9.946;2023-01-20T03:59:31;3.10;99.90
13976;DHT22;7062;49.792;9.946;2023-01-20T04:02:01;3.00;99.90
13976;DHT22;7062;49.792;9.946;2023-01-20T04:04:28;3.00;99.90
13976;DHT22;7062;49.792;9.946;2023-01-20T04:06:54;2.90;99.90
13976;DHT22;7062;49.792;9.946;2023-01-20T04:09:28;3.10;99.90
13976;DHT22;7062;49.792;9.946;2023-01-20T04:11:55;3.00;99.90
13976;DHT22;7062;49.792;9.946;2023-01-20T04:14:21;2.90;99.90
13976;DHT22;7062;49.792;9.946;2023-01-20T04:16:55;2.90;99.90
13976;DHT22;7062;49.792;9.946;2023-01-20T04:19:22;2.80;99.90
13976;DHT22;7062;49.792;9.946;2023-01-20T04:21:56;2.70;99.90
13976;DHT22;7062;49.792;9.946;2023-01-20T04:24:28;2.70;99.90
13976;DHT22;7062;49.792;9.946;2023-01-20T04:26:55;2.50;99.90
13976;DHT22;7062;49.792;9.946;2023-01-20T04:29:21;2.50;99.90
13976;DHT22;7062;49.792;9.946;2023-01-20T04:31:46;2.40;99.90
13976;DHT22;7062;49.792;9.946;2023-01-20T04:34:13;2.50;99.90
13976;DHT22;7062;49.792;9.946;2023-01-20T04:36:41;2.50;99.90
13976;DHT22;7062;49.792;9.946;2023-01-20T04:39:07;2.60;99.90
13976;DHT22;7062;49.792;9.946;2023-01-20T04:41:33;2.70;99.90
13976;DHT22;7062;49.792;9.946;2023-01-20T04:43:59;2.70;99.90
13976;DHT22;7062;49.792;9.946;2023-01-20T04:46:25;2.80;99.90
13976;DHT22;7062;49.792;9.946;2023-01-20T04:48:50;2.90;99.90
13976;DHT22;7062;49.792;9.946;2023-01-20T04:51:16;2.90;99.90
13976;DHT22;7062;49.792;9.946;2023-01-20T04:53:42;2.80;99.90
13976;DHT22;7062;49.792;9.946;2023-01-20T04:56:11;2.60;99.90
13976;DHT22;7062;49.792;9.946;2023-01-20T04:58:37;2.60;99.90
13976;DHT22;7062;49.792;9.946;2023-01-20T05:01:02;2.60;99.90
13976;DHT22;7062;49.792;9.946;2023-01-20T05:03:28;2.50;99.90
13976;DHT22;7062;49.792;9.946;2023-01-20T05:05:54;2.60;99.90
13976;DHT22;7062;49.792;9.946;2023-01-20T05:08:20;2.60;99.90
13976;DHT22;7062;49.792;9.946;2023-01-20T05:10:46;2.60;99.90
13976;DHT22;7062;49.792;9.946;2023-01-20T05:13:11;2.50;99.90
13976;DHT22;7062;49.792;9.946;2023-01-20T05:15:38;2.50;99.90
13976;DHT22;7062;49.792;9.946;2023-01-20T05:18:19;2.40;99.90
13976;DHT22;7062;49.792;9.946;2023-01-20T05:20:46;2.40;99.90
13976;DHT22;7062;49.792;9.946;2023-01-20T05:23:12;2.50;99.90
13976;DHT22;7062;49.792;9.946;2023-01-20T05:25:38;2.40;99.90
13976;DHT22;7062;49.792;9.946;2023-01-20T05:28:04;2.50;99.90
13976;DHT22;7062;49.792;9.946;2023-01-20T05:30:30;2.60;99.90
13976;DHT22;7062;49.792;9.946;2023-01-20T05:32:56;2.70;99.90
13976;DHT22;7062;49.792;9.946;2023-01-20T05:35:21;2.90;99.90
13976;DHT22;7062;49.792;9.946;2023-01-20T05:37:47;3.00;99.90
13976;DHT22;7062;49.792;9.946;2023-01-20T05:40:13;2.90;99.90
13976;DHT22;7062;49.792;9.946;2023-01-20T05:42:39;2.80;99.90
13976;DHT22;7062;49.792;9.946;2023-01-20T05:45:05;3.00;99.90
13976;DHT22;7062;49.792;9.946;2023-01-20T05:47:31;3.10;99.90
13976;DHT22;7062;49.792;9.946;2023-01-20T05:49:56;3.20;99.90
13976;DHT22;7062;49.792;9.946;2023-01-20T05:52:22;3.20;99.90
13976;DHT22;7062;49.792;9.946;2023-01-20T05:54:47;3.30;99.90
13976;DHT22;7062;49.792;9.946;2023-01-20T05:57:13;3.40;99.90
13976;DHT22;7062;49.792;9.946;2023-01-20T05:59:43;3.40;99.90
13976;DHT22;7062;49.792;9.946;2023-01-20T06:02:09;3.40;99.90
13976;DHT22;7062;49.792;9.946;2023-01-20T06:04:37;3.50;99.90
13976;DHT22;7062;49.792;9.946;2023-01-20T06:07:03;3.40;99.90
13976;DHT22;7062;49.792;9.946;2023-01-20T06:09:28;3.40;99.90
13976;DHT22;7062;49.792;9.946;2023-01-20T06:11:54;3.40;99.90
13976;DHT22;7062;49.792;9.946;2023-01-20T06:14:19;3.40;99.90
13976;DHT22;7062;49.792;9.946;2023-01-20T06:16:45;3.30;99.90
13976;DHT22;7062;49.792;9.946;2023-01-20T06:19:11;3.20;99.90
13976;DHT22;7062;49.792;9.946;2023-01-20T06:21:36;3.10;99.90
13976;DHT22;7062;49.792;9.946;2023-01-20T06:24:02;3.20;99.90
13976;DHT22;7062;49.792;9.946;2023-01-20T06:26:28;3.20;99.90
13976;DHT22;7062;49.792;9.946;2023-01-20T06:28:57;3.10;99.90
13976;DHT22;7062;49.792;9.946;2023-01-20T06:31:24;3.10;99.90
13976;DHT22;7062;49.792;9.946;2023-01-20T06:33:49;3.00;99.90
13976;DHT22;7062;49.792;9.946;2023-01-20T06:36:15;2.90;99.90
13976;DHT22;7062;49.792;9.946;2023-01-20T06:38:42;2.80;99.90
13976;DHT22;7062;49.792;9.946;2023-01-20T06:41:13;2.70;99.90
13976;DHT22;7062;49.792;9.946;2023-01-20T06:43:38;2.70;99.90
13976;DHT22;7062;49.792;9.946;2023-01-20T06:46:11;2.80;99.90
13976;DHT22;7062;49.792;9.946;2023-01-20T06:48:37;2.80;99.90
13976;DHT22;7062;49.792;9.946;2023-01-20T06:51:11;2.80;99.90
13976;DHT22;7062;49.792;9.946;2023-01-20T06:53:37;2.80;99.90
13976;DHT22;7062;49.792;9.946;2023-01-20T06:56:03;2.80;99.90
13976;DHT22;7062;49.792;9.946;2023-01-20T06:58:30;3.00;99.90
13976;DHT22;7062;49.792;9.946;2023-01-20T07:00:56;3.00;99.90
13976;DHT22;7062;49.792;9.946;2023-01-20T07:03:23;3.00;99.90
13976;DHT22;7062;49.792;9.946;2023-01-20T07:05:56;3.00;99.90
13976;DHT22;7062;49.792;9.946;2023-01-20T07:08:22;3.00;99.90
13976;DHT22;7062;49.792;9.946;2023-01-20T07:10:48;3.10;99.90
13976;DHT22;7062;49.792;9.946;2023-01-20T07:13:14;3.20;99.90
13976;DHT22;7062;49.792;9.946;2023-01-20T07:15:39;3.20;99.90
13976;DHT22;7062;49.792;9.946;2023-01-20T07:18:05;3.30;99.90
13976;DHT22;7062;49.792;9.946;2023-01-20T07:20:30;3.20;99.90
13976;DHT22;7062;49.792;9.946;2023-01-20T07:22:59;3.30;99.90
13976;DHT22;7062;49.792;9.946;2023-01-20T07:25:25;3.20;99.90
13976;DHT22;7062;49.792;9.946;2023-01-20T07:27:50;3.30;99.90
13976;DHT22;7062;49.792;9.946;2023-01-20T07:30:16;3.30;99.90
13976;DHT22;7062;49.792;9.946;2023-01-20T07:32:42;3.20;99.90
13976;DHT22;7062;49.792;9.946;2023-01-20T07:35:08;3.10;99.90
13976;DHT22;7062;49.792;9.946;2023-01-20T07:37:33;3.10;99.90
13976;DHT22;7062;49.792;9.946;2023-01-20T07:39:59;3.20;99.90
13976;DHT22;7062;49.792;9.946;2023-01-20T07:42:25;3.10;99.90
13976;DHT22;7062;49.792;9.946;2023-01-20T07:44:51;3.20;99.90
13976;DHT22;7062;49.792;9.946;2023-01-20T07:47:16;3.20;99.90
13976;DHT22;7062;49.792;9.946;2023-01-20T07:49:42;3.00;99.90
13976;DHT22;7062;49.792;9.946;2023-01-20T07:52:08;3.00;99.90
13976;DHT22;7062;49.792;9.946;2023-01-20T07:54:33;3.00;99.90
13976;DHT22;7062;49.792;9.946;2023-01-20T07:56:59;3.10;99.90
13976;DHT22;7062;49.792;9.946;2023-01-20T07:59:25;2.90;99.90
13976;DHT22;7062;49.792;9.946;2023-01-20T08:01:51;2.90;99.90
13976;DHT22;7062;49.792;9.946;2023-01-20T08:04:16;2.90;99.90
13976;DHT22;7062;49.792;9.946;2023-01-20T08:06:42;2.90;99.90
13976;DHT22;7062;49.792;9.946;2023-01-20T08:09:08;2.80;99.90
13976;DHT22;7062;49.792;9.946;2023-01-20T08:11:37;2.90;99.90
13976;DHT22;7062;49.792;9.946;2023-01-20T08:14:03;3.10;99.90
13976;DHT22;7062;49.792;9.946;2023-01-20T08:16:28;3.00;99.90
13976;DHT22;7062;49.792;9.946;2023-01-20T08:18:54;2.90;99.90
13976;DHT22;7062;49.792;9.946;2023-01-20T08:21:25;2.90;99.90
13976;DHT22;7062;49.792;9.946;2023-01-20T08:23:53;2.90;99.90
13976;DHT22;7062;49.792;9.946;2023-01-20T08:26:18;2.90;99.90
13976;DHT22;7062;49.792;9.946;2023-01-20T08:28:44;2.90;99.90
13976;DHT22;7062;49.792;9.946;2023-01-20T08:31:13;3.00;99.90
13976;DHT22;7062;49.792;9.946;2023-01-20T08:33:40;2.90;99.90
13976;DHT22;7062;49.792;9.946;2023-01-20T08:36:26;2.80;99.90
13976;DHT22;7062;49.792;9.946;2023-01-20T08:38:54;2.90;99.90
13976;DHT22;7062;49.792;9.946;2023-01-20T08:41:23;3.00;99.90
13976;DHT22;7062;49.792;9.946;2023-01-20T08:43:49;3.10;99.90
13976;DHT22;7062;49.792;9.946;2023-01-20T08:46:17;3.10;99.90
13976;DHT22;7062;49.792;9.946;2023-01-20T08:48:43;3.20;99.90
13976;DHT22;7062;49.792;9.946;2023-01-20T08:51:18;3.30;99.90
13976;DHT22;7062;49.792;9.946;2023-01-20T08:53:44;3.50;99.90
13976;DHT22;7062;49.792;9.946;2023-01-20T08:56:11;3.40;99.90
13976;DHT22;7062;49.792;9.946;2023-01-20T08:58:37;3.50;99.90
13976;DHT22;7062;49.792;9.946;2023-01-20T09:01:33;3.70;99.90
13976;DHT22;7062;49.792;9.946;2023-01-20T09:04:01;3.80;99.90
13976;DHT22;7062;49.792;9.946;2023-01-20T09:06:27;3.80;99.90
13976;DHT22;7062;49.792;9.946;2023-01-20T09:08:53;3.80;99.90
13976;DHT22;7062;49.792;9.946;2023-01-20T09:11:21;3.90;99.90
13976;DHT22;7062;49.792;9.946;2023-01-20T09:13:47;3.70;99.90
13976;DHT22;7062;49.792;9.946;2023-01-20T09:16:14;3.50;99.90
13976;DHT22;7062;49.792;9.946;2023-01-20T09:18:40;3.40;99.90
13976;DHT22;7062;49.792;9.946;2023-01-20T09:21:06;3.40;99.90
13976;DHT22;7062;49.792;9.946;2023-01-20T09:23:37;3.50;99.90
13976;DHT22;7062;49.792;9.946;2023-01-20T09:26:05;3.40;99.90
13976;DHT22;7062;49.792;9.946;2023-01-20T09:28:31;3.20;99.90
13976;DHT22;7062;49.792;9.946;2023-01-20T09:30:58;3.30;99.90
13976;DHT22;7062;49.792;9.946;2023-01-20T09:33:23;3.20;99.90
13976;DHT22;7062;49.792;9.946;2023-01-20T09:35:56;3.00;99.90
13976;DHT22;7062;49.792;9.946;2023-01-20T09:38:23;2.90;99.90
13976;DHT22;7062;49.792;9.946;2023-01-20T09:41:16;3.00;99.90
13976;DHT22;7062;49.792;9.946;2023-01-20T09:44:24;2.90;99.90
13976;DHT22;7062;49.792;9.946;2023-01-20T09:47:29;2.90;99.90
13976;DHT22;7062;49.792;9.946;2023-01-20T09:53:09;2.90;99.90
13976;DHT22;7062;49.792;9.946;2023-01-20T10:06:12;3.60;99.90
13976;DHT22;7062;49.792;9.946;2023-01-20T10:11:21;3.50;99.90
13976;DHT22;7062;49.792;9.946;2023-01-20T10:13:58;3.30;99.90
13976;DHT22;7062;49.792;9.946;2023-01-20T10:21:53;3.40;99.90
13976;DHT22;7062;49.792;9.946;2023-01-20T10:24:28;3.60;99.90
13976;DHT22;7062;49.792;9.946;2023-01-20T10:27:03;3.90;99.90
13976;DHT22;7062;49.792;9.946;2023-01-20T10:29:42;4.40;99.90
13976;DHT22;7062;49.792;9.946;2023-01-20T10:32:30;4.90;99.90
13976;DHT22;7062;49.792;9.946;2023-01-20T10:35:01;5.80;99.90
13976;DHT22;7062;49.792;9.946;2023-01-20T10:37:29;6.70;99.90
13976;DHT22;7062;49.792;9.946;2023-01-20T10:40:03;6.30;99.90
13976;DHT22;7062;49.792;9.946;2023-01-20T10:42:32;5.40;99.90
13976;DHT22;7062;49.792;9.946;2023-01-20T10:44:58;4.80;99.90
13976;DHT22;7062;49.792;9.946;2023-01-20T10:47:45;4.60;99.90
13976;DHT22;7062;49.792;9.946;2023-01-20T10:53:26;4.30;99.90
13976;DHT22;7062;49.792;9.946;2023-01-20T11:01:59;4.70;99.90
13976;DHT22;7062;49.792;9.946;2023-01-20T11:04:26;5.00;99.90
13976;DHT22;7062;49.792;9.946;2023-01-20T11:06:55;5.10;99.90
13976;DHT22;7062;49.792;9.946;2023-01-20T11:09:33;5.20;99.90
13976;DHT22;7062;49.792;9.946;2023-01-20T11:12:03;5.00;99.90
13976;DHT22;7062;49.792;9.946;2023-01-20T11:14:29;4.90;99.90
13976;DHT22;7062;49.792;9.946;2023-01-20T11:17:06;4.70;99.90
13976;DHT22;7062;49.792;9.946;2023-01-20T11:19:52;4.80;99.90
13976;DHT22;7062;49.792;9.946;2023-01-20T11:24:54;4.90;99.90
13976;DHT22;7062;49.792;9.946;2023-01-20T11:27:22;4.50;99.90
13976;DHT22;7062;49.792;9.946;2023-01-20T11:29:55;4.40;99.90
13976;DHT22;7062;49.792;9.946;2023-01-20T11:32:32;4.20;99.90
13976;DHT22;7062;49.792;9.946;2023-01-20T11:34:58;4.50;99.90
13976;DHT22;7062;49.792;9.946;2023-01-20T11:37:33;4.30;99.90
13976;DHT22;7062;49.792;9.946;2023-01-20T11:40:02;4.40;99.90
13976;DHT22;7062;49.792;9.946;2023-01-20T11:42:40;4.60;99.90
13976;DHT22;7062;49.792;9.946;2023-01-20T11:45:34;4.60;99.90
13976;DHT22;7062;49.792;9.946;2023-01-20T11:48:16;4.70;99.90
13976;DHT22;7062;49.792;9.946;2023-01-20T11:50:52;4.60;99.90
13976;DHT22;7062;49.792;9.946;2023-01-20T11:53:19;4.70;99.90
13976;DHT22;7062;49.792;9.946;2023-01-20T11:58:20;4.60;99.90
13976;DHT22;7062;49.792;9.946;2023-01-20T12:00:52;4.90;99.90
13976;DHT22;7062;49.792;9.946;2023-01-20T12:06:20;5.00;99.90
13976;DHT22;7062;49.792;9.946;2023-01-20T12:09:02;4.90;99.90
13976;DHT22;7062;49.792;9.946;2023-01-20T12:11:45;5.00;99.90
13976;DHT22;7062;49.792;9.946;2023-01-20T12:19:50;5.10;99.90
13976;DHT22;7062;49.792;9.946;2023-01-20T12:22:31;5.40;99.90
13976;DHT22;7062;49.792;9.946;2023-01-20T12:25:02;5.60;99.90
13976;DHT22;7062;49.792;9.946;2023-01-20T12:27:33;5.90;99.90
13976;DHT22;7062;49.792;9.946;2023-01-20T12:30:04;6.30;99.90
13976;DHT22;7062;49.792;9.946;2023-01-20T12:32:31;6.20;99.90
13976;DHT22;7062;49.792;9.946;2023-01-20T12:34:58;5.90;99.90
13976;DHT22;7062;49.792;9.946;2023-01-20T12:37:47;6.10;99.90
13976;DHT22;7062;49.792;9.946;2023-01-20T12:40:34;6.30;99.90
13976;DHT22;7062;49.792;9.946;2023-01-20T12:45:54;6.70;99.90
13976;DHT22;7062;49.792;9.946;2023-01-20T12:48:53;6.70;99.90
13976;DHT22;7062;49.792;9.946;2023-01-20T12:57:35;5.90;99.90
13976;DHT22;7062;49.792;9.946;2023-01-20T13:13:42;5.70;99.90
13976;DHT22;7062;49.792;9.946;2023-01-20T13:19:00;5.20;99.90
13976;DHT22;7062;49.792;9.946;2023-01-20T13:21:32;5.50;99.90
13976;DHT22;7062;49.792;9.946;2023-01-20T13:24:00;5.40;99.90
13976;DHT22;7062;49.792;9.946;2023-01-20T13:26:28;5.20;99.90
13976;DHT22;7062;49.792;9.946;2023-01-20T13:28:55;5.20;99.90
13976;DHT22;7062;49.792;9.946;2023-01-20T13:34:32;5.80;99.90
13976;DHT22;7062;49.792;9.946;2023-01-20T13:50:45;7.00;99.90
13976;DHT22;7062;49.792;9.946;2023-01-20T13:53:24;7.10;99.90
13976;DHT22;7062;49.792;9.946;2023-01-20T13:55:56;7.00;99.90
13976;DHT22;7062;49.792;9.946;2023-01-20T14:00:53;6.40;99.90
13976;DHT22;7062;49.792;9.946;2023-01-20T14:03:29;6.20;99.90
13976;DHT22;7062;49.792;9.946;2023-01-20T14:05:57;6.10;99.90
13976;DHT22;7062;49.792;9.946;2023-01-20T14:08:24;6.00;99.90
13976;DHT22;7062;49.792;9.946;2023-01-20T14:10:51;6.20;99.90
13976;DHT22;7062;49.792;9.946;2023-01-20T14:13:27;6.30;99.90
13976;DHT22;7062;49.792;9.946;2023-01-20T14:15:54;6.40;99.90
13976;DHT22;7062;49.792;9.946;2023-01-20T14:18:24;6.30;99.90
13976;DHT22;7062;49.792;9.946;2023-01-20T14:21:38;5.90;99.90
13976;DHT22;7062;49.792;9.946;2023-01-20T14:23:50;5.70;99.90
13976;DHT22;7062;49.792;9.946;2023-01-20T14:26:27;5.40;99.90
13976;DHT22;7062;49.792;9.946;2023-01-20T14:28:58;5.10;99.90
13976;DHT22;7062;49.792;9.946;2023-01-20T14:31:31;5.10;99.90
13976;DHT22;7062;49.792;9.946;2023-01-20T14:36:51;7.30;99.90
13976;DHT22;7062;49.792;9.946;2023-01-20T14:39:19;8.00;99.90
13976;DHT22;7062;49.792;9.946;2023-01-20T14:44:21;8.40;99.90
13976;DHT22;7062;49.792;9.946;2023-01-20T14:46:50;7.60;99.90
13976;DHT22;7062;49.792;9.946;2023-01-20T14:49:18;7.20;99.90
13976;DHT22;7062;49.792;9.946;2023-01-20T14:51:45;6.70;99.90
13976;DHT22;7062;49.792;9.946;2023-01-20T14:54:33;5.80;99.90
13976;DHT22;7062;49.792;9.946;2023-01-20T15:02:36;4.80;99.90
13976;DHT22;7062;49.792;9.946;2023-01-20T15:05:24;4.70;99.90
13976;DHT22;7062;49.792;9.946;2023-01-20T15:08:14;4.50;99.90
13976;DHT22;7062;49.792;9.946;2023-01-20T15:10:41;4.10;99.90
13976;DHT22;7062;49.792;9.946;2023-01-20T15:13:26;3.90;99.90
13976;DHT22;7062;49.792;9.946;2023-01-20T15:16:06;3.90;99.90
13976;DHT22;7062;49.792;9.946;2023-01-20T15:18:32;3.70;99.90
13976;DHT22;7062;49.792;9.946;2023-01-20T15:21:19;3.60;99.90
13976;DHT22;7062;49.792;9.946;2023-01-20T15:23:46;3.50;99.90
13976;DHT22;7062;49.792;9.946;2023-01-20T15:26:27;3.30;99.90
13976;DHT22;7062;49.792;9.946;2023-01-20T15:28:55;3.10;99.90
13976;DHT22;7062;49.792;9.946;2023-01-20T15:31:21;3.10;99.90
13976;DHT22;7062;49.792;9.946;2023-01-20T15:33:47;3.30;99.90
13976;DHT22;7062;49.792;9.946;2023-01-20T15:38:41;3.00;99.90
13976;DHT22;7062;49.792;9.946;2023-01-20T15:41:10;3.00;99.90
13976;DHT22;7062;49.792;9.946;2023-01-20T15:43:35;3.20;99.90
13976;DHT22;7062;49.792;9.946;2023-01-20T15:46:01;3.30;99.90
13976;DHT22;7062;49.792;9.946;2023-01-20T15:48:27;3.10;99.90
13976;DHT22;7062;49.792;9.946;2023-01-20T15:50:52;3.20;99.90
13976;DHT22;7062;49.792;9.946;2023-01-20T15:53:18;3.10;99.90
13976;DHT22;7062;49.792;9.946;2023-01-20T15:55:48;3.10;99.90
13976;DHT22;7062;49.792;9.946;2023-01-20T15:58:35;3.20;99.90
13976;DHT22;7062;49.792;9.946;2023-01-20T16:01:01;3.50;99.90
13976;DHT22;7062;49.792;9.946;2023-01-20T16:03:27;3.20;99.90
13976;DHT22;7062;49.792;9.946;2023-01-20T16:05:54;3.10;99.90
13976;DHT22;7062;49.792;9.946;2023-01-20T16:08:28;3.20;99.90
13976;DHT22;7062;49.792;9.946;2023-01-20T16:10:57;3.30;99.90
13976;DHT22;7062;49.792;9.946;2023-01-20T16:13:23;3.20;99.90
13976;DHT22;7062;49.792;9.946;2023-01-20T16:15:48;3.00;99.90
13976;DHT22;7062;49.792;9.946;2023-01-20T16:18:15;2.80;99.90
13976;DHT22;7062;49.792;9.946;2023-01-20T16:20:44;2.40;99.90
13976;DHT22;7062;49.792;9.946;2023-01-20T16:23:10;2.30;99.90
13976;DHT22;7062;49.792;9.946;2023-01-20T16:25:37;2.10;99.90
13976;DHT22;7062;49.792;9.946;2023-01-20T16:28:16;2.00;99.90
13976;DHT22;7062;49.792;9.946;2023-01-20T16:30:53;1.90;99.90
13976;DHT22;7062;49.792;9.946;2023-01-20T16:33:24;1.90;99.90
13976;DHT22;7062;49.792;9.946;2023-01-20T16:35:54;1.90;99.90
13976;DHT22;7062;49.792;9.946;2023-01-20T16:38:22;2.00;99.90
13976;DHT22;7062;49.792;9.946;2023-01-20T16:41:31;2.10;99.90
13976;DHT22;7062;49.792;9.946;2023-01-20T16:43:40;2.20;99.90
13976;DHT22;7062;49.792;9.946;2023-01-20T16:46:12;2.40;99.90
13976;DHT22;7062;49.792;9.946;2023-01-20T16:48:38;2.50;99.90
13976;DHT22;7062;49.792;9.946;2023-01-20T16:51:03;2.50;99.90
13976;DHT22;7062;49.792;9.946;2023-01-20T16:53:31;2.60;99.90
13976;DHT22;7062;49.792;9.946;2023-01-20T16:55:57;2.60;99.90
13976;DHT22;7062;49.792;9.946;2023-01-20T16:58:22;2.70;99.90
13976;DHT22;7062;49.792;9.946;2023-01-20T17:00:48;2.70;99.90
13976;DHT22;7062;49.792;9.946;2023-01-20T17:03:14;2.70;99.90
13976;DHT22;7062;49.792;9.946;2023-01-20T17:05:39;2.60;99.90
13976;DHT22;7062;49.792;9.946;2023-01-20T17:08:05;2.50;99.90
13976;DHT22;7062;49.792;9.946;2023-01-20T17:10:31;2.40;99.90
13976;DHT22;7062;49.792;9.946;2023-01-20T17:12:57;2.50;99.90
13976;DHT22;7062;49.792;9.946;2023-01-20T17:15:23;2.60;99.90
13976;DHT22;7062;49.792;9.946;2023-01-20T17:17:54;2.50;99.90
13976;DHT22;7062;49.792;9.946;2023-01-20T17:20:23;2.30;99.90
13976;DHT22;7062;49.792;9.946;2023-01-20T17:22:51;2.10;99.90
13976;DHT22;7062;49.792;9.946;2023-01-20T17:25:20;2.10;99.90
13976;DHT22;7062;49.792;9.946;2023-01-20T17:27:46;2.20;99.90
13976;DHT22;7062;49.792;9.946;2023-01-20T17:30:11;2.20;99.90
13976;DHT22;7062;49.792;9.946;2023-01-20T17:32:37;2.30;99.90
13976;DHT22;7062;49.792;9.946;2023-01-20T17:35:03;2.40;99.90
13976;DHT22;7062;49.792;9.946;2023-01-20T17:37:29;2.50;99.90
13976;DHT22;7062;49.792;9.946;2023-01-20T17:39:55;2.70;99.90
13976;DHT22;7062;49.792;9.946;2023-01-20T17:42:20;2.50;99.90
13976;DHT22;7062;49.792;9.946;2023-01-20T17:44:46;2.30;99.90
13976;DHT22;7062;49.792;9.946;2023-01-20T17:47:11;2.20;99.90
13976;DHT22;7062;49.792;9.946;2023-01-20T17:49:37;2.10;99.90
13976;DHT22;7062;49.792;9.946;2023-01-20T17:52:03;2.30;99.90
13976;DHT22;7062;49.792;9.946;2023-01-20T17:54:29;2.50;99.90
13976;DHT22;7062;49.792;9.946;2023-01-20T17:56:55;2.60;99.90
13976;DHT22;7062;49.792;9.946;2023-01-20T17:59:20;2.60;99.90
13976;DHT22;7062;49.792;9.946;2023-01-20T18:01:46;2.60;99.90
13976;DHT22;7062;49.792;9.946;2023-01-20T18:04:19;2.50;99.90
13976;DHT22;7062;49.792;9.946;2023-01-20T18:06:45;2.30;99.90
13976;DHT22;7062;49.792;9.946;2023-01-20T18:09:12;2.10;99.90
13976;DHT22;7062;49.792;9.946;2023-01-20T18:11:38;2.00;99.90
13976;DHT22;7062;49.792;9.946;2023-01-20T18:14:05;1.90;99.90
13976;DHT22;7062;49.792;9.946;2023-01-20T18:16:33;2.00;99.90
13976;DHT22;7062;49.792;9.946;2023-01-20T18:19:00;2.20;99.90
13976;DHT22;7062;49.792;9.946;2023-01-20T18:21:30;2.30;99.90
13976;DHT22;7062;49.792;9.946;2023-01-20T18:23:58;2.40;99.90